Escribe el Código OACI del Aeropuerto

Buscar por Aeropuerto o Ciudad

Información Meteorológica Actual

FIMP | Sir Seewoosagur Ramgoolam International Airport

Plaine Magnien, Mauritius

Última Actualización Hace 23 Minutos

Cielo Mayormente Nublado

27 ºC de Temperatura

Vientos Moderados del Este

Temperatura

27 ºC

Temperatura del Punto de Rocío

21 ºC

Humedad Relativa

69.89 %

Dirección del Viento

Este (100º, Sin Variaciones de Consideración)

Velocidad del Viento

19 km/h (10 kt)

Ráfagas

No Hay

Visibilidad

Mayor a 10 kilómetros

Presión Reducida a Nivel del Mar

1018 hPa (Hectopascales)

Capas de Nubes

5% a 30% de Cielo Cubierto con Base a 488 mts (1600 ft) de Altura.

60% a 90% de Cielo Cubierto con Base a 1524 mts (5000 ft) de Altura.

METAR FIMP 071400Z 10010KT 9999 FEW016 BKN050 27/21 Q1018

Pronóstico Meteorológico

FIMP | Sir Seewoosagur Ramgoolam International Airport

Plaine Magnien, Mauritius

Pronóstico válido para las próximas 28 Horas

A partir de este momento se espera:

Cielo Parcialmente Nublado

Vientos Moderados del SurEste

A partir de este momento se esperan 4 horas con períodos intermitentes de:

Lluvia Ligera

En 10 horas se espera el comienzo de 6 horas con períodos intermitentes de:

Lluvia Ligera

Temperatura Máxima

Sin Datos

Temperatura Mínima

Sin Datos

TAF FIMP 071105Z 0712/0818 12010KT 9999 SCT017 TEMPO 0712/0718 7000 -SHRA BKN015 PROB30 TEMPO 0800/0806 7000 -SHRA FEW010 BKN015